Time;durP1;ratioP1;P1;durP2;ratioP2;P2;SDS_P1;SDS_P2;PMS_P1;PMS_P2;Temp;Humidity;BMP_temperature;BMP_pressure;BME280_temperature;BME280_humidity;BME280_pressure;Samples;Min_cycle;Max_cycle;Signal;HPM_P1;HPM_P2
2022/05/30 00:00:12;;;;;;;7.18;3.08;;;;;;;20.80;54.28;98756.34;3115365;28;20057;-71
2022/05/30 00:01:44;;;;;;;7.55;2.40;;;;;;;20.73;54.58;98754.47;3112958;28;20050;-70
2022/05/30 00:03:17;;;;;;;9.18;2.70;;;;;;;20.66;54.80;98757.78;3115530;28;20060;-71
2022/05/30 00:04:50;;;;;;;7.50;2.92;;;;;;;20.59;54.76;98751.47;3115343;28;20061;-70
2022/05/30 00:06:25;;;;;;;8.48;3.63;;;;;;;20.58;54.92;98755.09;3114955;28;20493;-70
2022/05/30 00:07:57;;;;;;;7.68;2.58;;;;;;;20.51;54.97;98756.69;3115363;28;20050;-71
2022/05/30 00:09:29;;;;;;;6.57;2.20;;;;;;;20.43;55.02;98748.69;3115320;28;20057;-71
2022/05/30 00:11:02;;;;;;;5.28;2.35;;;;;;;20.46;54.98;98764.25;3115181;28;20041;-71
2022/05/30 00:12:34;;;;;;;6.57;2.25;;;;;;;20.40;54.97;98759.59;3119963;28;20053;-70
2022/05/30 00:14:10;;;;;;;5.28;2.75;;;;;;;20.19;55.07;98728.25;3115375;28;20212;-69
2022/05/30 00:15:41;;;;;;;6.82;2.72;;;;;;;20.32;55.25;98754.25;3115584;28;20049;-70
2022/05/30 00:17:14;;;;;;;5.40;2.53;;;;;;;20.33;55.14;98762.03;3115272;28;20053;-69
2022/05/30 00:18:46;;;;;;;8.13;3.10;;;;;;;20.28;55.42;98758.22;3113612;28;20113;-69
2022/05/30 00:20:18;;;;;;;4.88;2.58;;;;;;;20.22;55.48;98767.59;3110137;28;20572;-70
2022/05/30 00:21:56;;;;;;;7.35;2.70;;;;;;;20.21;55.48;98773.88;3111239;28;20090;-70
2022/05/30 00:23:28;;;;;;;7.82;2.92;;;;;;;20.14;55.53;98772.81;3111782;28;20529;-70
2022/05/30 00:25:00;;;;;;;10.07;2.70;;;;;;;20.14;55.83;98778.97;3106109;28;20149;-70
2022/05/30 00:26:32;;;;;;;6.20;2.65;;;;;;;20.16;55.83;98784.91;3111096;28;20485;-70
2022/05/30 00:28:05;;;;;;;7.85;2.50;;;;;;;20.09;55.94;98783.88;3111874;28;20054;-70
2022/05/30 00:29:37;;;;;;;8.40;2.17;;;;;;;20.08;55.89;98792.78;3112615;28;20053;-69
2022/05/30 00:31:10;;;;;;;9.85;3.53;;;;;;;20.00;56.02;98784.81;3113137;28;21117;-70
2022/05/30 00:32:42;;;;;;;5.97;2.65;;;;;;;19.99;56.32;98780.47;3112899;28;20123;-70
2022/05/30 00:34:14;;;;;;;6.90;3.03;;;;;;;19.99;56.33;98791.06;3111980;28;20123;-70
2022/05/30 00:35:47;;;;;;;4.82;2.60;;;;;;;19.80;56.48;98770.13;3113219;28;20053;-70
2022/05/30 00:37:19;;;;;;;7.60;3.10;;;;;;;19.94;56.56;98793.34;3113505;28;20132;-72
2022/05/30 00:38:51;;;;;;;10.10;3.28;;;;;;;19.84;56.39;98782.84;3112979;28;20054;-70
2022/05/30 00:40:22;;;;;;;9.50;2.65;;;;;;;19.78;56.66;98771.06;3113693;28;20654;-70
2022/05/30 00:42:07;;;;;;;8.63;3.05;;;;;;;19.85;56.63;98778.41;3116982;28;20499;-70
2022/05/30 00:43:44;;;;;;;5.97;2.60;;;;;;;19.83;56.83;98785.66;3117338;28;20437;-71
2022/05/30 00:45:19;;;;;;;5.93;2.85;;;;;;;19.73;56.96;98776.00;3117248;28;20053;-70
2022/05/30 00:46:51;;;;;;;10.38;3.22;;;;;;;19.76;56.96;98786.28;3117837;28;20061;-72
2022/05/30 00:48:27;;;;;;;6.30;2.83;;;;;;;19.74;56.84;98788.22;3117366;28;20097;-73
2022/05/30 00:49:59;;;;;;;11.32;2.80;;;;;;;19.76;57.00;98788.91;3114319;28;20136;-72
2022/05/30 00:51:35;;;;;;;7.90;2.60;;;;;;;19.75;56.81;98781.13;3117252;28;20076;-72
2022/05/30 00:53:09;;;;;;;10.15;3.25;;;;;;;19.73;56.93;98781.28;3117370;28;20057;-73
2022/05/30 00:54:44;;;;;;;11.15;3.03;;;;;;;19.70;56.80;98780.75;3117773;28;20127;-71
2022/05/30 00:56:17;;;;;;;7.18;2.60;;;;;;;19.65;56.97;98778.59;3117209;28;20511;-72
2022/05/30 00:57:50;;;;;;;6.80;3.00;;;;;;;19.65;56.95;98783.88;3117545;28;20127;-71
2022/05/30 00:59:22;;;;;;;6.68;3.30;;;;;;;19.64;56.97;98795.38;3110788;28;20065;-71
2022/05/30 01:00:55;;;;;;;10.95;3.10;;;;;;;19.44;57.02;98765.66;3117492;28;20056;-71
2022/05/30 01:02:29;;;;;;;6.82;2.65;;;;;;;19.61;57.17;98793.06;3117073;28;20049;-72
2022/05/30 01:07:56;;;;;;;4.75;2.65;;;;;;;19.54;57.10;98807.81;3096596;28;20077;-74
2022/05/30 01:09:33;;;;;;;8.55;3.17;;;;;;;19.53;57.32;98803.53;3116912;28;20068;-73
2022/05/30 01:11:05;;;;;;;8.68;2.80;;;;;;;19.51;57.36;98802.84;3116869;28;20106;-71
2022/05/30 01:12:41;;;;;;;8.82;2.58;;;;;;;19.59;57.28;98808.22;3117284;28;20045;-72
2022/05/30 01:14:12;;;;;;;6.70;2.78;;;;;;;19.59;57.20;98805.56;3117114;28;20056;-72
2022/05/30 01:15:44;;;;;;;9.98;3.28;;;;;;;19.59;57.05;98807.38;3110527;28;20458;-71
2022/05/30 01:17:16;;;;;;;7.45;3.25;;;;;;;19.55;57.21;98798.91;3116978;28;20057;-70
2022/05/30 01:18:53;;;;;;;6.05;2.90;;;;;;;19.47;57.24;98786.47;3115070;28;20080;-70
2022/05/30 01:20:41;;;;;;;10.43;2.80;;;;;;;19.54;57.38;98802.53;3115797;28;20053;-73
2022/05/30 01:22:34;;;;;;;8.88;2.70;;;;;;;19.52;57.27;98800.06;3117005;28;20053;-72
2022/05/30 01:24:18;;;;;;;7.18;3.00;;;;;;;19.49;57.34;98804.78;3117248;28;20375;-73
2022/05/30 01:26:19;;;;;;;4.43;2.50;;;;;;;19.49;57.37;98802.16;3116824;28;20168;-72
2022/05/30 01:27:57;;;;;;;6.10;2.83;;;;;;;19.50;57.19;98804.66;3116541;28;20053;-72
2022/05/30 01:29:33;;;;;;;8.65;2.60;;;;;;;19.52;57.28;98801.84;3116942;28;20061;-72
2022/05/30 01:31:05;;;;;;;11.00;2.72;;;;;;;19.54;57.21;98802.53;3116790;28;20053;-72
2022/05/30 01:32:37;;;;;;;6.20;3.00;;;;;;;19.55;57.10;98793.63;3117130;28;20397;-72
2022/05/30 01:34:09;;;;;;;4.93;2.80;;;;;;;19.57;56.96;98801.41;3116683;28;20075;-72
2022/05/30 01:35:41;;;;;;;7.28;2.58;;;;;;;19.58;57.02;98803.06;3116669;28;20056;-72
2022/05/30 01:37:13;;;;;;;8.20;3.05;;;;;;;19.62;56.87;98805.25;3116835;28;20115;-73
2022/05/30 01:38:44;;;;;;;7.32;2.60;;;;;;;19.66;56.75;98808.47;3116656;28;20107;-72
2022/05/30 01:40:16;;;;;;;6.80;2.80;;;;;;;19.70;56.71;98810.66;3115677;28;20386;-72
2022/05/30 01:41:48;;;;;;;10.75;3.10;;;;;;;19.72;56.77;98808.69;3116864;28;20045;-73
2022/05/30 01:43:19;;;;;;;11.20;3.47;;;;;;;19.75;56.64;98815.47;3116966;28;20049;-73
2022/05/30 01:44:52;;;;;;;6.47;2.80;;;;;;;19.76;56.41;98801.31;3116903;28;20474;-73
2022/05/30 01:46:23;;;;;;;;;;;;;;;19.74;56.78;98804.06;3117152;28;20045;-72
2022/05/30 01:47:55;;;;;;;4.40;2.65;;;;;;;19.72;56.50;98808.69;3116720;28;19925;-71
2022/05/30 01:49:27;;;;;;;7.32;3.00;;;;;;;19.75;56.46;98807.53;3116631;28;20042;-72
2022/05/30 01:51:00;;;;;;;7.78;2.47;;;;;;;19.74;56.39;98814.66;3112251;28;20050;-71
2022/05/30 01:52:33;;;;;;;7.15;2.90;;;;;;;19.73;56.30;98812.16;3116115;28;20050;-72
2022/05/30 01:54:05;;;;;;;8.02;2.40;;;;;;;19.73;56.46;98815.63;3116741;28;20053;-71
2022/05/30 01:55:37;;;;;;;6.15;2.60;;;;;;;19.63;56.37;98793.72;3116381;28;20072;-68
2022/05/30 01:57:09;;;;;;;5.68;2.70;;;;;;;19.71;56.35;98814.94;3117966;28;20720;-72
2022/05/30 01:58:42;;;;;;;6.38;3.00;;;;;;;19.69;56.59;98811.63;3120118;28;20105;-73
2022/05/30 02:00:17;;;;;;;;;;;;;;;19.66;56.76;98809.28;3116908;28;20486;-72
2022/05/30 02:01:48;;;;;;;;;;;;;;;19.65;56.77;98809.44;3112333;28;19925;-71
2022/05/30 02:03:20;;;;;;;8.15;2.80;;;;;;;19.63;56.63;98812.19;3116438;28;20322;-72
2022/05/30 02:04:53;;;;;;;7.50;2.97;;;;;;;19.64;56.74;98820.94;3113794;28;20522;-70
2022/05/30 02:06:26;;;;;;;6.72;2.78;;;;;;;19.61;56.92;98814.19;3116392;28;20634;-71
2022/05/30 02:07:58;;;;;;;4.47;2.42;;;;;;;19.61;56.94;98819.47;3116675;28;20053;-71
2022/05/30 02:09:30;;;;;;;7.68;2.80;;;;;;;19.59;57.03;98812.66;3116504;28;20618;-70
2022/05/30 02:11:02;;;;;;;11.88;3.05;;;;;;;19.56;56.97;98821.72;3116455;28;20276;-71
2022/05/30 02:12:34;;;;;;;5.85;3.08;;;;;;;19.45;57.15;98814.00;3116127;28;20532;-70
2022/05/30 02:14:06;;;;;;;6.15;2.63;;;;;;;19.48;57.19;98819.00;3116652;28;20626;-73
2022/05/30 02:17:25;;;;;;;6.85;3.15;;;;;;;19.52;57.10;98825.63;3111348;28;20119;-71
2022/05/30 02:18:57;;;;;;;7.88;2.78;;;;;;;19.49;57.11;98818.84;3115203;28;20078;-73
2022/05/30 02:20:29;;;;;;;9.45;2.58;;;;;;;19.44;57.23;98822.91;3117183;28;20735;-71
2022/05/30 02:22:01;;;;;;;6.47;2.50;;;;;;;19.45;57.04;98827.22;3112075;28;20840;-71
2022/05/30 02:23:33;;;;;;;8.63;2.50;;;;;;;19.43;57.22;98832.66;3112047;28;20064;-71
2022/05/30 02:25:06;;;;;;;4.07;2.25;;;;;;;19.41;57.46;98826.69;3111394;28;20231;-71
2022/05/30 02:26:38;;;;;;;6.60;2.42;;;;;;;19.24;57.76;98809.84;3111718;28;20049;-71
2022/05/30 02:28:11;;;;;;;6.17;3.03;;;;;;;19.20;57.76;98807.66;3112474;28;20049;-72
2022/05/30 02:29:42;;;;;;;8.45;2.42;;;;;;;19.35;57.87;98824.66;3111557;28;20488;-72
2022/05/30 02:31:16;;;;;;;9.50;2.78;;;;;;;19.31;58.22;98824.13;3113320;28;20497;-71
2022/05/30 02:36:38;;;;;;;;;;;;;;;19.23;58.56;98825.84;3116587;28;20104;-71
2022/05/30 02:36:40;;;;;;;8.35;2.55;;;;;;;19.21;58.42;98833.06;3116308;28;20127;-72
2022/05/30 02:38:12;;;;;;;8.88;2.80;;;;;;;19.14;59.00;98818.78;3116056;28;20053;-72
2022/05/30 02:39:44;;;;;;;6.40;2.17;;;;;;;19.20;58.77;98832.22;3115838;28;20584;-72
2022/05/30 02:41:14;;;;;;;6.75;2.97;;;;;;;19.20;59.03;98834.88;3116136;28;20695;-72
2022/05/30 02:42:46;;;;;;;4.80;2.47;;;;;;;19.03;58.89;98806.63;3116161;28;20054;-72
2022/05/30 02:44:20;;;;;;;6.00;2.70;;;;;;;19.20;58.94;98840.16;3115950;28;20560;-72
2022/05/30 02:45:52;;;;;;;5.82;2.70;;;;;;;19.21;58.99;98841.81;3116340;28;20068;-72
2022/05/30 02:47:25;;;;;;;5.00;2.75;;;;;;;19.23;58.71;98844.31;3115757;28;20123;-71
2022/05/30 02:48:57;;;;;;;7.55;2.65;;;;;;;19.20;58.97;98848.06;3116120;28;20107;-72
2022/05/30 02:50:28;;;;;;;7.32;2.45;;;;;;;19.14;59.05;98843.38;3115487;28;20053;-71
2022/05/30 02:52:00;;;;;;;7.85;2.60;;;;;;;19.15;59.23;98852.94;3115688;28;20593;-70
2022/05/30 02:53:32;;;;;;;13.07;2.75;;;;;;;19.14;59.05;98861.00;3116120;28;20064;-71
2022/05/30 02:55:04;;;;;;;6.05;2.80;;;;;;;19.05;59.20;98839.00;3116203;28;20108;-72
2022/05/30 02:56:36;;;;;;;8.68;2.83;;;;;;;19.11;59.26;98856.88;3115652;28;20049;-71
2022/05/30 02:58:08;;;;;;;5.65;3.10;;;;;;;19.09;59.33;98869.38;3119629;28;20053;-72
2022/05/30 02:59:40;;;;;;;9.20;3.42;;;;;;;19.06;59.31;98869.66;3115633;28;20123;-71
2022/05/30 03:01:12;;;;;;;5.97;2.80;;;;;;;19.03;59.46;98878.69;3115491;28;20447;-72
2022/05/30 03:02:46;;;;;;;5.65;3.00;;;;;;;19.02;59.56;98881.50;3114138;28;20085;-71
2022/05/30 03:04:18;;;;;;;6.00;2.95;;;;;;;18.98;59.54;98880.09;3115822;28;20045;-71
2022/05/30 03:05:50;;;;;;;6.45;2.80;;;;;;;18.97;59.75;98883.72;3116129;28;20049;-71
2022/05/30 03:07:22;;;;;;;11.85;2.63;;;;;;;18.93;59.81;98896.41;3115920;28;20230;-70
2022/05/30 03:08:54;;;;;;;8.23;2.90;;;;;;;18.93;59.84;98892.91;3115391;28;20388;-71
2022/05/30 03:10:24;;;;;;;9.02;2.85;;;;;;;18.86;59.95;98884.75;3116045;28;20049;-71
2022/05/30 03:11:56;;;;;;;8.55;2.20;;;;;;;18.95;59.78;98904.16;3115585;28;20103;-70
2022/05/30 03:13:27;;;;;;;9.95;3.17;;;;;;;18.91;59.63;98900.16;3115891;28;20049;-71
2022/05/30 03:14:59;;;;;;;7.60;2.95;;;;;;;18.93;59.86;98908.72;3116014;28;20111;-70
2022/05/30 03:16:32;;;;;;;4.50;2.35;;;;;;;18.84;60.00;98900.72;3115419;28;20057;-70
2022/05/30 03:18:05;;;;;;;8.48;2.88;;;;;;;18.90;59.98;98909.88;3115760;28;20102;-72
2022/05/30 03:19:37;;;;;;;8.52;2.95;;;;;;;18.87;60.12;98915.41;3115515;28;20052;-72
2022/05/30 03:21:10;;;;;;;10.70;2.90;;;;;;;18.62;60.20;98875.47;3115192;28;20532;-72
2022/05/30 03:22:42;;;;;;;10.32;3.17;;;;;;;18.82;60.17;98910.56;3115995;28;20226;-72
2022/05/30 03:24:13;;;;;;;8.55;3.22;;;;;;;18.83;60.22;98914.88;3115730;28;20139;-72
2022/05/30 03:25:45;;;;;;;7.57;3.38;;;;;;;18.89;60.32;98920.56;3115428;28;20553;-72
2022/05/30 03:27:17;;;;;;;6.78;3.05;;;;;;;18.89;60.15;98920.56;3115714;28;20592;-73
2022/05/30 03:28:49;;;;;;;9.80;3.00;;;;;;;18.91;60.17;98930.00;3115550;28;20511;-72
2022/05/30 03:30:21;;;;;;;10.20;2.85;;;;;;;18.91;60.12;98934.44;3115507;28;20458;-72
2022/05/30 03:31:54;;;;;;;8.85;3.38;;;;;;;18.89;60.14;98942.47;3115527;28;20076;-73
2022/05/30 03:33:28;;;;;;;8.68;3.45;;;;;;;18.82;60.06;98933.50;3115243;28;20049;-72
2022/05/30 03:35:00;;;;;;;7.40;3.58;;;;;;;18.90;60.15;98943.31;3114248;28;20522;-70
2022/05/30 03:36:33;;;;;;;8.65;3.00;;;;;;;18.91;60.30;98943.19;3115539;28;20511;-70
2022/05/30 03:38:07;;;;;;;4.80;2.85;;;;;;;18.71;60.47;98918.63;3115948;28;20245;-70
2022/05/30 03:39:39;;;;;;;8.05;3.05;;;;;;;18.81;60.71;98937.09;3115655;28;20049;-72
2022/05/30 03:41:11;;;;;;;9.93;3.10;;;;;;;18.86;60.51;98951.50;3115552;28;20057;-71
2022/05/30 03:42:43;;;;;;;5.57;2.63;;;;;;;18.81;60.55;98942.34;3115702;28;20124;-72
2022/05/30 03:44:15;;;;;;;8.80;3.33;;;;;;;18.89;60.41;98960.13;3115405;28;20057;-72
2022/05/30 03:45:46;;;;;;;7.07;2.80;;;;;;;18.89;60.48;98966.22;3115460;28;20053;-71
2022/05/30 03:47:19;;;;;;;10.95;2.97;;;;;;;18.90;60.56;98969.69;3115269;28;20049;-72
2022/05/30 03:48:52;;;;;;;7.65;3.10;;;;;;;18.90;60.53;98970.56;3115658;28;20088;-71
2022/05/30 03:50:25;;;;;;;5.43;2.85;;;;;;;18.82;60.45;98949.31;3115419;28;21187;-72
2022/05/30 03:51:59;;;;;;;;;;;;;;;18.91;60.21;98964.28;3115974;28;20472;-71
2022/05/30 03:53:31;;;;;;;6.47;2.70;;;;;;;18.92;60.29;98971.22;3115557;28;19983;-72
2022/05/30 03:55:03;;;;;;;10.45;2.38;;;;;;;18.64;59.92;98925.44;3115460;28;20049;-71
2022/05/30 03:56:35;;;;;;;7.25;2.55;;;;;;;18.97;60.12;98971.63;3115407;28;20087;-71
2022/05/30 03:58:09;;;;;;;7.28;2.67;;;;;;;19.00;59.92;98965.25;3114952;28;20721;-71
2022/05/30 03:59:41;;;;;;;6.90;2.78;;;;;;;18.87;59.89;98947.06;3119849;28;20048;-72
2022/05/30 04:01:13;;;;;;;7.57;2.75;;;;;;;19.09;60.01;98972.28;3115326;28;20589;-72
2022/05/30 04:02:47;;;;;;;7.00;2.33;;;;;;;19.04;59.77;98964.78;3114753;28;20056;-72
2022/05/30 04:04:20;;;;;;;4.70;2.67;;;;;;;19.13;59.86;98978.94;3115361;28;20609;-71
2022/05/30 04:05:52;;;;;;;;;;;;;;;19.14;59.49;98977.97;3119357;28;20435;-71
2022/05/30 04:07:23;;;;;;;9.20;3.03;;;;;;;19.18;59.32;98978.50;3122378;28;19983;-72
2022/05/30 04:08:55;;;;;;;8.68;2.78;;;;;;;19.17;59.48;98982.97;3115210;28;20057;-72
2022/05/30 04:10:27;;;;;;;6.13;2.50;;;;;;;19.22;59.36;98978.06;3115030;28;20084;-71
2022/05/30 04:11:59;;;;;;;9.93;3.38;;;;;;;19.24;59.19;98980.56;3114440;28;20060;-70
2022/05/30 04:13:31;;;;;;;6.55;2.72;;;;;;;19.27;59.17;98980.28;3114924;28;20052;-71
2022/05/30 04:15:05;;;;;;;7.93;3.72;;;;;;;19.14;59.10;98956.88;3115143;28;20049;-72
2022/05/30 04:16:36;;;;;;;9.20;3.38;;;;;;;19.28;59.35;98982.75;3118444;28;20510;-72
2022/05/30 04:18:09;;;;;;;8.93;3.20;;;;;;;19.15;59.13;98952.41;3120153;28;20102;-73
2022/05/30 04:19:41;;;;;;;7.53;2.95;;;;;;;19.30;58.96;98982.63;3115031;28;20060;-73
2022/05/30 04:21:13;;;;;;;7.43;3.00;;;;;;;19.38;59.15;98992.47;3114974;28;20075;-70
2022/05/30 04:22:44;;;;;;;10.65;2.80;;;;;;;19.36;59.15;98991.78;3114307;28;20526;-72
2022/05/30 04:24:16;;;;;;;10.77;3.10;;;;;;;19.39;59.12;98996.78;3120090;28;20126;-70
2022/05/30 04:25:48;;;;;;;8.50;2.90;;;;;;;19.34;59.38;98976.06;3120686;28;20098;-70
2022/05/30 04:27:19;;;;;;;8.95;3.08;;;;;;;19.21;59.06;98955.28;3127115;28;20154;-68
2022/05/30 04:28:51;;;;;;;7.10;3.22;;;;;;;19.45;58.89;98990.91;3111845;28;20064;-70
2022/05/30 04:30:23;;;;;;;7.50;3.33;;;;;;;19.03;59.48;98928.84;3110087;28;20808;-70
2022/05/30 04:31:55;;;;;;;9.20;3.30;;;;;;;19.38;59.66;98993.31;3112460;28;20056;-66
2022/05/30 04:33:32;;;;;;;4.93;3.25;;;;;;;19.39;59.74;98983.56;3119926;28;20077;-65
2022/05/30 04:35:07;;;;;;;11.48;4.70;;;;;;;19.41;59.86;98993.03;3121867;28;20140;-67
2022/05/30 04:36:39;;;;;;;13.80;6.80;;;;;;;19.43;60.00;98996.34;3122702;28;20451;-65
2022/05/30 04:38:11;;;;;;;12.43;4.07;;;;;;;19.45;59.62;98993.56;3125516;28;20497;-68
2022/05/30 04:39:43;;;;;;;30.15;10.40;;;;;;;19.46;59.56;98996.06;3114588;28;20058;-71
2022/05/30 04:41:15;;;;;;;21.20;7.32;;;;;;;19.39;59.81;98984.41;3108388;28;20049;-68
2022/05/30 04:42:48;;;;;;;11.05;3.67;;;;;;;19.43;59.56;98995.50;3114823;28;20053;-68
2022/05/30 04:44:19;;;;;;;9.98;3.38;;;;;;;19.47;59.37;99005.63;3114600;28;20491;-69
2022/05/30 04:46:03;;;;;;;9.85;3.70;;;;;;;19.50;59.32;99007.16;3110856;28;20122;-69
2022/05/30 04:47:37;;;;;;;8.82;4.10;;;;;;;19.51;59.18;99009.63;3108571;28;20120;-68
2022/05/30 04:49:09;;;;;;;12.23;3.30;;;;;;;19.54;59.02;99009.34;3112446;28;20115;-69
2022/05/30 04:50:42;;;;;;;9.40;3.58;;;;;;;19.63;58.93;99017.38;3110721;28;20357;-70
2022/05/30 04:52:14;;;;;;;14.35;4.28;;;;;;;19.65;59.04;99012.81;3113542;28;20424;-70
2022/05/30 04:53:46;;;;;;;10.45;3.92;;;;;;;19.67;59.18;99016.97;3114134;28;20500;-68
2022/05/30 04:55:21;;;;;;;10.43;5.05;;;;;;;19.74;59.17;99010.13;3104295;28;20519;-65
2022/05/30 04:56:53;;;;;;;16.73;8.95;;;;;;;19.76;58.43;99002.06;3104785;28;20049;-64
2022/05/30 04:58:28;;;;;;;12.45;4.72;;;;;;;19.85;57.93;99010.91;3105832;28;20050;-66
2022/05/30 05:00:00;;;;;;;8.45;3.60;;;;;;;19.87;57.68;99009.75;3113373;28;20096;-71
2022/05/30 05:01:32;;;;;;;7.72;3.20;;;;;;;19.90;57.36;99008.66;3111451;28;20551;-73
2022/05/30 05:03:04;;;;;;;6.70;2.50;;;;;;;19.99;56.98;99003.31;3113924;28;20095;-68
2022/05/30 05:04:36;;;;;;;5.45;3.00;;;;;;;20.07;56.60;99010.50;3114196;28;20092;-70
2022/05/30 05:06:13;;;;;;;8.30;2.60;;;;;;;19.91;56.26;98979.44;3114553;28;20144;-75
2022/05/30 05:07:49;;;;;;;10.38;3.10;;;;;;;20.15;56.00;99007.13;3117816;28;20052;-76
2022/05/30 05:09:31;;;;;;;6.60;2.63;;;;;;;20.20;56.09;99010.97;3114520;28;20057;-75
2022/05/30 05:11:16;;;;;;;6.80;3.03;;;;;;;20.27;56.23;99011.19;3114841;28;20159;-77
2022/05/30 05:12:48;;;;;;;10.98;3.53;;;;;;;20.36;55.83;99009.47;3116031;28;20058;-76
2022/05/30 05:14:20;;;;;;;7.22;2.80;;;;;;;20.41;55.81;99009.84;3116233;28;20119;-76
2022/05/30 05:15:56;;;;;;;5.00;2.72;;;;;;;20.45;55.58;99021.78;3116087;28;20264;-75
2022/05/30 05:17:28;;;;;;;7.68;2.92;;;;;;;20.50;55.43;99014.22;3115319;28;20053;-75
2022/05/30 05:19:00;;;;;;;13.20;2.92;;;;;;;20.57;55.29;99022.41;3115860;28;20470;-74
2022/05/30 05:20:39;;;;;;;9.98;2.72;;;;;;;20.64;54.96;99015.50;3115746;28;20049;-76
2022/05/30 05:22:15;;;;;;;5.70;2.35;;;;;;;20.70;54.61;99012.25;3115695;28;20599;-75
2022/05/30 05:23:48;;;;;;;10.02;3.22;;;;;;;20.78;54.60;99024.72;3115462;28;20060;-75
2022/05/30 05:25:20;;;;;;;6.38;2.63;;;;;;;20.80;54.20;99017.47;3115649;28;20199;-76
2022/05/30 05:26:54;;;;;;;6.57;2.60;;;;;;;20.86;53.90;99028.28;3115794;28;20053;-75
2022/05/30 05:28:29;;;;;;;7.82;2.97;;;;;;;20.91;54.15;99025.13;3116291;28;20049;-75
2022/05/30 05:30:01;;;;;;;5.50;2.70;;;;;;;20.87;53.62;99010.56;3117234;28;20165;-72
2022/05/30 05:31:34;;;;;;;6.82;2.88;;;;;;;20.95;53.18;99013.28;3116199;28;20313;-75
2022/05/30 05:33:06;;;;;;;10.63;2.95;;;;;;;21.07;53.09;99029.75;3116766;28;20046;-71
2022/05/30 05:34:38;;;;;;;12.60;2.97;;;;;;;21.10;52.84;99047.97;3116691;28;20470;-70
2022/05/30 05:36:18;;;;;;;8.15;3.10;;;;;;;21.07;52.49;99027.91;3110265;28;20103;-73
2022/05/30 05:38:10;;;;;;;8.35;2.85;;;;;;;21.18;52.36;99031.28;3110485;28;20050;-70
2022/05/30 05:39:43;;;;;;;8.07;3.05;;;;;;;21.20;52.30;99037.25;3111604;28;20111;-68
2022/05/30 05:41:15;;;;;;;7.85;2.85;;;;;;;21.20;52.32;99026.66;3116689;28;20535;-74
2022/05/30 05:42:46;;;;;;;12.27;2.92;;;;;;;21.27;52.72;99025.91;3116740;28;20490;-72
2022/05/30 05:44:18;;;;;;;6.55;3.00;;;;;;;21.41;52.28;99040.41;3116495;28;20053;-72
2022/05/30 05:45:51;;;;;;;8.15;2.97;;;;;;;21.38;52.09;99030.13;3116502;28;20068;-72
2022/05/30 05:47:22;;;;;;;16.52;3.00;;;;;;;21.48;51.88;99044.09;3116378;28;20108;-67
2022/05/30 05:48:56;;;;;;;24.55;14.82;;;;;;;21.48;51.48;99038.78;3116980;28;20057;-68
2022/05/30 05:50:28;;;;;;;33.25;20.73;;;;;;;21.55;51.26;99045.09;3119550;28;20045;-69
2022/05/30 05:52:00;;;;;;;8.07;3.95;;;;;;;21.60;51.08;99051.78;3116141;28;20057;-70
2022/05/30 05:53:38;;;;;;;6.32;3.53;;;;;;;21.65;50.60;99050.31;3116491;28;20045;-73
2022/05/30 05:55:10;;;;;;;6.88;3.05;;;;;;;21.65;50.65;99046.81;3121655;28;20114;-76
2022/05/30 05:56:42;;;;;;;7.38;2.97;;;;;;;21.48;50.27;99020.25;3121304;28;20053;-76
2022/05/30 05:58:14;;;;;;;6.95;3.63;;;;;;;21.68;50.24;99059.75;3121468;28;20057;-76
2022/05/30 05:59:46;;;;;;;9.38;2.65;;;;;;;21.67;49.78;99050.13;3118611;28;20057;-76
2022/05/30 06:01:20;;;;;;;12.90;2.97;;;;;;;21.78;49.94;99065.75;3121054;28;20131;-75
2022/05/30 06:02:52;;;;;;;8.18;2.90;;;;;;;21.78;49.98;99055.16;3125119;28;20594;-76
2022/05/30 06:04:24;;;;;;;10.18;3.20;;;;;;;21.32;49.98;98967.97;3120701;28;20064;-76
2022/05/30 06:05:56;;;;;;;8.32;2.67;;;;;;;21.75;49.63;99034.28;3126358;28;20075;-74
2022/05/30 06:07:28;;;;;;;7.15;3.28;;;;;;;21.90;49.31;99059.19;3120917;28;20054;-75
2022/05/30 06:09:03;;;;;;;11.50;4.07;;;;;;;21.80;49.63;99022.22;3111100;28;20068;-69
2022/05/30 06:11:04;;;;;;;11.60;3.55;;;;;;;21.79;49.47;99031.13;3115822;28;20111;-78
2022/05/30 06:12:27;;;;;;;15.40;3.25;;;;;;;21.64;49.31;99000.94;3115930;28;20223;-70
2022/05/30 06:13:59;;;;;;;14.23;3.50;;;;;;;21.80;49.16;99021.41;3116324;28;20175;-75
2022/05/30 06:15:34;;;;;;;5.53;3.33;;;;;;;22.04;49.19;99049.81;3116409;28;20053;-76
2022/05/30 06:17:07;;;;;;;10.75;3.30;;;;;;;22.18;49.55;99073.09;3123526;28;20136;-76
2022/05/30 06:18:40;;;;;;;7.70;3.00;;;;;;;22.10;49.24;99056.28;3117508;28;20053;-76
2022/05/30 06:20:14;;;;;;;11.95;3.58;;;;;;;22.30;49.31;99070.94;3125589;28;20052;-73
2022/05/30 06:21:46;;;;;;;9.43;3.50;;;;;;;22.22;48.52;99062.97;3121952;28;20153;-76
2022/05/30 06:23:18;;;;;;;27.52;4.20;;;;;;;22.30;48.53;99080.72;3115989;28;20096;-70
2022/05/30 06:24:51;;;;;;;13.90;4.93;;;;;;;22.23;48.03;99068.09;3118704;28;20060;-67
2022/05/30 06:26:23;;;;;;;;;;;;;;;22.30;48.48;99078.88;3116353;28;20099;-66
2022/05/30 06:27:55;;;;;;;16.77;5.03;;;;;;;22.34;48.55;99074.09;3116496;28;20019;-67
2022/05/30 06:29:27;;;;;;;9.07;4.55;;;;;;;22.40;48.77;99076.94;3116005;28;20103;-69
2022/05/30 06:30:59;;;;;;;16.15;5.13;;;;;;;22.49;48.73;99085.75;3109912;28;20470;-68
2022/05/30 06:32:31;;;;;;;9.45;4.22;;;;;;;22.58;48.66;99078.63;3111605;28;20049;-71
2022/05/30 06:34:03;;;;;;;7.55;4.22;;;;;;;22.51;48.86;99056.38;3111662;28;20055;-72
2022/05/30 06:35:35;;;;;;;6.18;4.00;;;;;;;22.69;48.32;99081.78;3112229;28;20052;-72
2022/05/30 06:37:08;;;;;;;7.78;3.88;;;;;;;22.75;49.01;99079.47;3112037;28;20544;-71
2022/05/30 06:38:40;;;;;;;11.38;4.63;;;;;;;22.57;48.84;99051.25;3111339;28;20206;-70
2022/05/30 06:40:15;;;;;;;8.50;4.40;;;;;;;22.85;48.26;99077.47;3112058;28;20077;-71
2022/05/30 06:41:48;;;;;;;12.70;5.00;;;;;;;22.87;48.63;99081.63;3111517;28;20053;-71
2022/05/30 06:43:19;;;;;;;13.25;4.53;;;;;;;22.84;48.37;99063.38;3110881;28;20053;-73
2022/05/30 06:44:51;;;;;;;8.88;4.43;;;;;;;22.83;48.29;99067.00;3112008;28;20061;-69
2022/05/30 06:46:23;;;;;;;7.75;4.53;;;;;;;22.60;47.93;99039.50;3111865;28;20501;-70
2022/05/30 06:47:55;;;;;;;17.97;5.40;;;;;;;22.89;48.35;99089.41;3114723;28;20085;-73
2022/05/30 06:49:27;;;;;;;10.85;4.93;;;;;;;22.93;47.52;99088.13;3116019;28;20053;-70
2022/05/30 06:51:02;;;;;;;12.05;4.55;;;;;;;22.98;47.21;99082.31;3115816;28;20053;-72
2022/05/30 06:52:35;;;;;;;11.48;4.43;;;;;;;23.01;47.35;99076.66;3117674;28;20055;-71
2022/05/30 06:54:08;;;;;;;9.77;4.60;;;;;;;23.08;47.38;99080.34;3115947;28;20123;-70
2022/05/30 06:55:41;;;;;;;7.05;4.32;;;;;;;23.13;47.17;99080.66;3115677;28;20506;-69
2022/05/30 06:59:03;;;;;;;16.10;4.43;;;;;;;23.27;46.54;99084.47;3115920;28;20049;-70
2022/05/30 07:00:35;;;;;;;6.95;4.38;;;;;;;23.27;45.99;99082.63;3115807;28;20091;-71
2022/05/30 07:02:08;;;;;;;10.07;4.13;;;;;;;23.13;46.06;99052.28;3113218;28;20127;-72
2022/05/30 07:03:40;;;;;;;8.57;3.95;;;;;;;23.32;45.99;99082.97;3115346;28;20057;-74
2022/05/30 07:05:12;;;;;;;9.75;4.43;;;;;;;23.39;46.12;99081.28;3115714;28;20049;-75
2022/05/30 07:06:45;;;;;;;10.25;4.22;;;;;;;23.47;46.06;99077.78;3115728;28;20049;-76
2022/05/30 07:08:17;;;;;;;12.20;3.80;;;;;;;23.51;45.78;99075.59;3111751;28;20562;-75
2022/05/30 07:09:49;;;;;;;8.82;4.05;;;;;;;23.47;45.67;99069.00;3108811;28;20065;-75
2022/05/30 07:11:23;;;;;;;9.88;3.55;;;;;;;23.57;45.71;99088.22;3114480;28;20042;-75
2022/05/30 07:12:55;;;;;;;7.72;3.80;;;;;;;23.54;45.46;99077.94;3114081;28;20123;-75
2022/05/30 07:14:27;;;;;;;5.40;3.60;;;;;;;23.61;45.18;99076.25;3113955;28;20053;-76
2022/05/30 07:16:00;;;;;;;9.30;4.18;;;;;;;23.59;45.53;99064.97;3114289;28;20642;-75
2022/05/30 07:17:31;;;;;;;5.13;3.50;;;;;;;23.71;45.48;99084.06;3114864;28;20057;-75
2022/05/30 07:19:03;;;;;;;8.25;3.78;;;;;;;23.70;45.81;99074.44;3114731;28;20049;-76
2022/05/30 07:20:35;;;;;;;6.77;3.70;;;;;;;23.73;45.75;99077.59;3111983;28;20484;-76
2022/05/30 07:22:07;;;;;;;8.40;3.28;;;;;;;23.71;45.22;99070.78;3114686;28;20725;-75
2022/05/30 07:23:40;;;;;;;9.47;3.90;;;;;;;23.61;45.34;99042.53;3114460;28;20241;-76
2022/05/30 07:25:12;;;;;;;6.35;3.65;;;;;;;23.89;45.49;99075.84;3114208;28;20045;-75
2022/05/30 07:26:46;;;;;;;10.18;3.42;;;;;;;23.95;45.30;99083.16;3114658;28;20076;-76
2022/05/30 07:28:17;;;;;;;;;;;;;;;23.97;44.73;99075.84;3109155;28;20635;-75